Time;durP1;ratioP1;P1;durP2;ratioP2;P2;SDS_P1;SDS_P2;PMS_P1;PMS_P2;Temp;Humidity;BMP_temperature;BMP_pressure;BME280_temperature;BME280_humidity;BME280_pressure;Samples;Min_cycle;Max_cycle;Signal;HPM_P1;HPM_P2
2022/10/17 00:00:51;;;;;;;12.45;10.32;;;;;;;;;;5093814;28;20040;-70
2022/10/17 00:03:17;;;;;;;13.43;10.45;;;;;;;;;;5094011;28;20365;-70
2022/10/17 00:05:44;;;;;;;15.85;10.48;;;;;;;;;;5092625;28;20063;-70
2022/10/17 00:08:10;;;;;;;12.85;10.60;;;;;;;;;;5093949;28;20016;-70
2022/10/17 00:10:35;;;;;;;16.05;11.30;;;;;;;;;;5092521;28;20024;-70
2022/10/17 00:13:01;;;;;;;16.35;12.38;;;;;;;;;;5092624;28;20422;-70
2022/10/17 00:15:26;;;;;;;14.43;10.60;;;;;;;;;;5092475;28;20417;-70
2022/10/17 00:17:52;;;;;;;16.52;11.13;;;;;;;;;;5093742;28;20076;-70
2022/10/17 00:20:17;;;;;;;13.75;10.55;;;;;;;;;;5094204;28;20027;-70
2022/10/17 00:22:42;;;;;;;12.95;10.77;;;;;;;;;;5093780;28;20479;-69
2022/10/17 00:25:08;;;;;;;13.93;11.13;;;;;;;;;;5092969;28;20043;-70
2022/10/17 00:27:39;;;;;;;13.85;10.73;;;;;;;;;;5075862;28;20103;-70
2022/10/17 00:30:06;;;;;;;16.60;11.18;;;;;;;;;;5072633;28;20029;-69
2022/10/17 00:32:31;;;;;;;16.17;11.38;;;;;;;;;;5073630;28;20013;-69
2022/10/17 00:34:57;;;;;;;11.45;10.25;;;;;;;;;;5073671;28;20143;-69
2022/10/17 00:37:23;;;;;;;13.57;10.80;;;;;;;;;;5073056;28;20409;-70
2022/10/17 00:39:49;;;;;;;14.02;10.07;;;;;;;;;;5073674;28;20059;-69
2022/10/17 00:42:14;;;;;;;12.90;10.32;;;;;;;;;;5073369;28;20024;-69
2022/10/17 00:44:40;;;;;;;12.45;9.75;;;;;;;;;;5073614;28;20032;-69
2022/10/17 00:47:09;;;;;;;13.13;10.50;;;;;;;;;;5073317;28;20479;-68
2022/10/17 00:49:35;;;;;;;12.45;10.60;;;;;;;;;;5072141;28;20021;-69
2022/10/17 00:52:18;;;;;;;15.48;10.60;;;;;;;;;;5073457;28;20035;-69
2022/10/17 00:54:47;;;;;;;13.68;10.63;;;;;;;;;;5073271;28;20067;-69
2022/10/17 00:57:12;;;;;;;13.35;10.07;;;;;;;;;;5073222;28;20021;-69
2022/10/17 00:59:39;;;;;;;13.80;10.68;;;;;;;;;;5075507;28;20082;-69
2022/10/17 01:02:07;;;;;;;14.95;10.90;;;;;;;;;;5076105;28;20033;-69
2022/10/17 01:04:34;;;;;;;15.00;11.27;;;;;;;;;;5077313;28;20032;-69
2022/10/17 01:07:00;;;;;;;13.82;11.05;;;;;;;;;;5075721;28;20476;-69
2022/10/17 01:09:26;;;;;;;14.60;11.57;;;;;;;;;;5075755;28;20106;-69
2022/10/17 01:11:57;;;;;;;17.13;11.32;;;;;;;;;;5077163;28;20337;-70
2022/10/17 01:14:22;;;;;;;13.25;10.98;;;;;;;;;;5076369;28;20492;-70
2022/10/17 01:16:53;;;;;;;15.15;11.48;;;;;;;;;;5058948;28;20048;-70
2022/10/17 01:19:18;;;;;;;;;;;;;;;;;;5076510;28;20395;-70
2022/10/17 01:22:06;;;;;;;11.67;9.47;;;;;;;;;;5076903;28;19904;-71
2022/10/17 01:24:45;;;;;;;13.23;10.55;;;;;;;;;;5074994;28;20271;-71
2022/10/17 01:27:11;;;;;;;14.90;11.15;;;;;;;;;;5076918;28;20369;-71
2022/10/17 01:29:51;;;;;;;14.40;10.25;;;;;;;;;;5075228;28;20070;-70
2022/10/17 01:32:18;;;;;;;15.07;11.30;;;;;;;;;;5075437;28;20032;-72
2022/10/17 01:34:48;;;;;;;14.60;10.30;;;;;;;;;;5075394;28;20506;-70
2022/10/17 01:37:26;;;;;;;13.38;10.50;;;;;;;;;;5058957;28;20046;-70
2022/10/17 01:39:58;;;;;;;13.65;9.82;;;;;;;;;;5075810;28;20488;-68
2022/10/17 01:42:27;;;;;;;12.73;10.40;;;;;;;;;;5076681;28;20036;-69
2022/10/17 01:44:56;;;;;;;15.63;10.20;;;;;;;;;;5075428;28;20115;-69
2022/10/17 01:47:23;;;;;;;11.15;9.60;;;;;;;;;;5075407;28;20030;-69
2022/10/17 01:49:50;;;;;;;11.57;9.60;;;;;;;;;;5074884;28;20055;-68
2022/10/17 01:52:19;;;;;;;13.95;10.13;;;;;;;;;;5075236;28;20028;-69
2022/10/17 01:54:47;;;;;;;12.20;10.05;;;;;;;;;;5074840;28;20013;-68
2022/10/17 01:57:17;;;;;;;14.10;9.95;;;;;;;;;;5074827;28;20024;-69
2022/10/17 01:59:44;;;;;;;13.88;10.02;;;;;;;;;;5076010;28;20044;-69
2022/10/17 02:02:11;;;;;;;10.98;9.75;;;;;;;;;;5074635;28;20029;-69
2022/10/17 02:04:37;;;;;;;11.38;9.85;;;;;;;;;;5076250;28;20483;-69
2022/10/17 02:07:10;;;;;;;15.23;9.85;;;;;;;;;;5074618;28;20032;-69
2022/10/17 02:09:35;;;;;;;11.65;10.02;;;;;;;;;;5074077;28;20032;-70
2022/10/17 02:12:13;;;;;;;12.10;10.35;;;;;;;;;;5074523;28;20169;-69
2022/10/17 02:14:58;;;;;;;16.48;10.35;;;;;;;;;;5074454;28;20112;-69
2022/10/17 02:17:24;;;;;;;11.07;9.90;;;;;;;;;;5074407;28;20063;-70
2022/10/17 02:19:53;;;;;;;11.80;10.25;;;;;;;;;;5074411;28;20047;-70
2022/10/17 02:22:34;;;;;;;12.38;10.13;;;;;;;;;;5074298;28;20032;-70
2022/10/17 02:25:03;;;;;;;12.18;9.80;;;;;;;;;;5075880;28;20075;-69
2022/10/17 02:27:37;;;;;;;13.07;9.90;;;;;;;;;;5074280;28;20035;-69
2022/10/17 02:30:07;;;;;;;10.77;9.65;;;;;;;;;;5074282;28;20028;-69
2022/10/17 02:32:32;;;;;;;12.18;10.32;;;;;;;;;;5074135;28;20028;-69
2022/10/17 02:34:59;;;;;;;17.00;10.60;;;;;;;;;;5074299;28;20048;-69
2022/10/17 02:37:27;;;;;;;13.00;10.00;;;;;;;;;;5075686;28;20091;-69
2022/10/17 02:39:53;;;;;;;12.20;10.02;;;;;;;;;;5075463;28;20032;-69
2022/10/17 02:42:20;;;;;;;11.68;9.98;;;;;;;;;;5075483;28;20150;-69
2022/10/17 02:44:46;;;;;;;12.65;9.88;;;;;;;;;;5075728;28;20464;-70
2022/10/17 02:47:26;;;;;;;13.93;10.10;;;;;;;;;;5057918;28;20031;-70
2022/10/17 02:49:53;;;;;;;14.80;10.57;;;;;;;;;;5073712;28;20032;-70
2022/10/17 02:52:34;;;;;;;18.92;10.52;;;;;;;;;;5075081;28;20046;-71
2022/10/17 02:55:24;;;;;;;13.98;10.23;;;;;;;;;;5057621;28;20020;-71
2022/10/17 02:57:57;;;;;;;14.52;10.43;;;;;;;;;;5044358;28;20037;-71
2022/10/17 03:00:24;;;;;;;14.23;10.40;;;;;;;;;;5074243;28;20055;-70
2022/10/17 03:02:50;;;;;;;14.18;10.35;;;;;;;;;;5073900;28;20055;-68
2022/10/17 03:05:17;;;;;;;12.63;9.32;;;;;;;;;;5073599;28;20033;-69
2022/10/17 03:07:44;;;;;;;13.23;10.48;;;;;;;;;;5074689;28;20028;-69
2022/10/17 03:13:33;;;;;;;12.43;9.82;;;;;;;;;;5117948;22;20056;-70
2022/10/17 03:15:58;;;;;;;13.15;9.93;;;;;;;;;;5055050;28;20387;-68
2022/10/17 03:18:25;;;;;;;14.15;10.52;;;;;;;;;;5057137;28;20024;-66
2022/10/17 03:20:56;;;;;;;14.25;11.10;;;;;;;;;;5056124;28;20047;-68
2022/10/17 03:23:21;;;;;;;15.45;10.07;;;;;;;;;;5056782;28;20024;-66
2022/10/17 03:25:47;;;;;;;14.38;10.52;;;;;;;;;;5077200;22;20066;-94
2022/10/17 03:28:14;;;;;;;16.00;10.73;;;;;;;;;;5095134;28;20019;-94
2022/10/17 03:30:40;;;;;;;16.80;10.65;;;;;;;;;;5115054;28;20028;-95
2022/10/17 03:33:06;;;;;;;13.02;10.55;;;;;;;;;;5084848;28;20020;-94
2022/10/17 03:35:32;;;;;;;11.75;9.88;;;;;;;;;;5086136;28;20109;-93
2022/10/17 03:38:10;;;;;;;13.05;9.98;;;;;;;;;;5085151;28;20087;-94
2022/10/17 03:40:37;;;;;;;15.68;9.95;;;;;;;;;;5104062;28;20024;-94
2022/10/17 03:49:30;;;;;;;14.70;9.85;;;;;;;;;;5107708;28;20040;-66
2022/10/17 03:51:57;;;;;;;13.38;9.25;;;;;;;;;;5058852;28;20019;-67
2022/10/17 03:54:23;;;;;;;10.95;9.05;;;;;;;;;;5075534;28;20061;-67
2022/10/17 03:56:48;;;;;;;12.70;10.00;;;;;;;;;;5075232;28;20402;-67
2022/10/17 03:59:16;;;;;;;12.15;9.93;;;;;;;;;;5075607;28;20020;-67
2022/10/17 04:01:49;;;;;;;14.88;10.25;;;;;;;;;;5092225;28;20062;-68
2022/10/17 04:04:14;;;;;;;14.50;10.70;;;;;;;;;;5075460;28;20032;-68
2022/10/17 04:06:39;;;;;;;15.27;10.48;;;;;;;;;;5075448;28;20023;-68
2022/10/17 04:09:05;;;;;;;14.98;11.00;;;;;;;;;;5092153;28;20111;-68
2022/10/17 04:11:39;;;;;;;15.80;10.82;;;;;;;;;;5092210;28;20431;-67
2022/10/17 04:14:04;;;;;;;13.85;10.10;;;;;;;;;;5093088;28;20060;-66
2022/10/17 04:16:30;;;;;;;13.55;9.75;;;;;;;;;;5075430;28;20099;-67
2022/10/17 04:18:59;;;;;;;15.50;9.32;;;;;;;;;;5074161;28;20016;-67
2022/10/17 04:21:28;;;;;;;14.45;10.45;;;;;;;;;;5073678;28;20452;-67
2022/10/17 04:23:57;;;;;;;12.35;9.95;;;;;;;;;;5090603;28;20080;-68
2022/10/17 04:26:40;;;;;;;14.95;10.10;;;;;;;;;;5091756;28;20097;-69
2022/10/17 04:29:06;;;;;;;11.68;10.38;;;;;;;;;;5073545;28;20526;-67
2022/10/17 04:31:31;;;;;;;11.98;9.20;;;;;;;;;;5074301;28;20107;-67
2022/10/17 04:34:04;;;;;;;14.02;10.23;;;;;;;;;;5065378;28;20032;-65
2022/10/17 04:36:29;;;;;;;12.80;9.45;;;;;;;;;;5080706;28;20020;-67
2022/10/17 04:38:55;;;;;;;13.18;9.02;;;;;;;;;;5081105;28;20532;-67
2022/10/17 04:41:20;;;;;;;12.35;8.93;;;;;;;;;;5081033;28;20417;-68
2022/10/17 04:43:45;;;;;;;14.98;9.27;;;;;;;;;;5080895;28;20049;-67
2022/10/17 04:46:12;;;;;;;14.45;9.32;;;;;;;;;;5097938;28;20073;-67
2022/10/17 04:48:38;;;;;;;16.92;9.90;;;;;;;;;;5080678;28;20036;-68
2022/10/17 04:51:06;;;;;;;12.48;9.45;;;;;;;;;;5080845;28;20028;-67
2022/10/17 04:53:38;;;;;;;12.73;9.30;;;;;;;;;;5080933;28;20047;-67
2022/10/17 04:56:08;;;;;;;16.98;9.75;;;;;;;;;;5080975;28;20090;-67
2022/10/17 04:58:34;;;;;;;13.43;9.40;;;;;;;;;;5080905;28;20016;-67
2022/10/17 05:01:02;;;;;;;12.85;10.18;;;;;;;;;;5099100;28;20027;-66
2022/10/17 05:03:28;;;;;;;16.50;10.23;;;;;;;;;;5080245;28;20020;-67
2022/10/17 05:05:54;;;;;;;13.77;10.07;;;;;;;;;;5080763;28;20364;-67
2022/10/17 05:08:20;;;;;;;13.27;9.90;;;;;;;;;;5080832;28;20467;-66
2022/10/17 05:10:46;;;;;;;14.77;9.35;;;;;;;;;;5080808;28;20043;-66
2022/10/17 05:13:12;;;;;;;13.68;10.63;;;;;;;;;;5097366;28;20031;-67
2022/10/17 05:15:38;;;;;;;14.05;9.75;;;;;;;;;;5080051;28;20144;-67
2022/10/17 05:18:05;;;;;;;16.00;10.57;;;;;;;;;;5098740;28;20044;-67
2022/10/17 05:20:30;;;;;;;20.75;11.13;;;;;;;;;;5080411;28;20039;-67
2022/10/17 05:22:59;;;;;;;25.77;12.93;;;;;;;;;;5098913;28;20019;-67
2022/10/17 05:25:28;;;;;;;18.85;12.48;;;;;;;;;;5080823;28;20024;-67
2022/10/17 05:27:53;;;;;;;19.80;12.98;;;;;;;;;;5080708;28;20592;-66
2022/10/17 05:30:19;;;;;;;24.80;12.55;;;;;;;;;;5098459;28;20553;-66
2022/10/17 05:32:46;;;;;;;18.80;12.38;;;;;;;;;;5082285;28;20024;-66
2022/10/17 05:35:12;;;;;;;25.38;13.50;;;;;;;;;;5098430;28;20463;-66
2022/10/17 05:37:37;;;;;;;18.23;11.52;;;;;;;;;;5100095;28;20016;-67
2022/10/17 05:40:04;;;;;;;20.05;13.05;;;;;;;;;;5081272;28;20052;-67
2022/10/17 05:42:29;;;;;;;18.10;12.90;;;;;;;;;;5081455;28;20016;-67
2022/10/17 05:44:55;;;;;;;19.02;13.00;;;;;;;;;;5077780;28;20043;-66
2022/10/17 05:47:21;;;;;;;18.88;12.57;;;;;;;;;;5078226;28;20024;-67
2022/10/17 05:49:47;;;;;;;17.13;11.13;;;;;;;;;;5077099;28;20034;-67
2022/10/17 05:52:12;;;;;;;19.50;11.98;;;;;;;;;;5077906;28;20012;-66
2022/10/17 05:54:52;;;;;;;19.30;12.20;;;;;;;;;;5095131;28;20028;-66
2022/10/17 05:57:18;;;;;;;18.13;11.80;;;;;;;;;;5095032;28;20217;-67
2022/10/17 05:59:43;;;;;;;21.67;12.93;;;;;;;;;;5078762;28;20020;-66
2022/10/17 06:02:12;;;;;;;24.10;15.85;;;;;;;;;;5078071;28;20039;-66
2022/10/17 06:04:37;;;;;;;23.05;14.40;;;;;;;;;;5096537;28;20049;-67
2022/10/17 06:07:03;;;;;;;25.50;14.98;;;;;;;;;;5078023;28;20028;-67
2022/10/17 06:09:31;;;;;;;20.17;13.82;;;;;;;;;;5077869;28;20111;-67
2022/10/17 06:11:56;;;;;;;21.90;14.00;;;;;;;;;;5077945;28;20111;-67
2022/10/17 06:14:22;;;;;;;22.23;13.18;;;;;;;;;;5078140;28;20008;-67
2022/10/17 06:16:52;;;;;;;23.90;14.30;;;;;;;;;;5094624;28;20134;-67
2022/10/17 06:19:17;;;;;;;22.30;14.43;;;;;;;;;;5078397;28;20412;-67
2022/10/17 06:21:44;;;;;;;20.40;14.27;;;;;;;;;;5077810;28;20031;-67
2022/10/17 06:24:16;;;;;;;18.25;12.73;;;;;;;;;;5077807;28;20028;-67
2022/10/17 06:26:42;;;;;;;20.90;12.65;;;;;;;;;;5078308;28;20035;-67
2022/10/17 06:29:09;;;;;;;19.17;12.93;;;;;;;;;;5061378;28;20047;-67
2022/10/17 06:31:40;;;;;;;20.45;13.43;;;;;;;;;;5077790;28;20088;-67
2022/10/17 06:34:06;;;;;;;19.30;12.55;;;;;;;;;;5077590;28;20039;-67
2022/10/17 06:36:31;;;;;;;18.35;12.90;;;;;;;;;;5077497;28;20027;-67
2022/10/17 06:38:57;;;;;;;20.95;12.98;;;;;;;;;;5078051;28;20114;-67
2022/10/17 06:41:31;;;;;;;18.30;13.13;;;;;;;;;;5095500;28;20471;-67
2022/10/17 06:44:09;;;;;;;20.70;12.75;;;;;;;;;;5077358;28;20380;-67
2022/10/17 06:47:09;;;;;;;21.13;13.35;;;;;;;;;;5094006;28;20470;-67
2022/10/17 06:49:35;;;;;;;18.88;12.60;;;;;;;;;;5077178;28;20038;-67
2022/10/17 06:52:26;;;;;;;20.27;12.57;;;;;;;;;;5092015;28;20040;-67
2022/10/17 06:55:27;;;;;;;;;;;;;;;;;;5052262;28;20056;-67
2022/10/17 06:58:08;;;;;;;17.23;11.60;;;;;;;;;;5074649;28;20014;-67
2022/10/17 07:00:58;;;;;;;15.00;11.10;;;;;;;;;;5095134;28;20036;-67
2022/10/17 07:03:24;;;;;;;13.77;9.93;;;;;;;;;;5095340;28;20060;-66
2022/10/17 07:05:53;;;;;;;13.75;9.85;;;;;;;;;;5076913;28;20057;-66
2022/10/17 07:08:18;;;;;;;12.25;10.00;;;;;;;;;;5076808;28;20384;-67
2022/10/17 07:10:43;;;;;;;14.25;10.32;;;;;;;;;;5093604;28;20027;-67
2022/10/17 07:13:09;;;;;;;14.93;12.80;;;;;;;;;;5076767;28;20122;-67
2022/10/17 07:15:36;;;;;;;11.43;9.60;;;;;;;;;;5076822;28;20012;-67
2022/10/17 07:18:01;;;;;;;16.70;10.02;;;;;;;;;;5094733;28;20482;-67
2022/10/17 07:20:27;;;;;;;12.57;8.52;;;;;;;;;;5076504;28;20020;-67
2022/10/17 07:22:52;;;;;;;12.63;9.57;;;;;;;;;;5093408;28;20062;-67
2022/10/17 07:25:18;;;;;;;11.63;9.65;;;;;;;;;;5094967;28;20054;-67
2022/10/17 07:27:49;;;;;;;10.18;8.73;;;;;;;;;;5076416;28;20089;-67
2022/10/17 07:30:15;;;;;;;9.68;8.65;;;;;;;;;;5076619;28;20024;-67
2022/10/17 07:32:54;;;;;;;16.10;8.57;;;;;;;;;;5076353;28;20012;-67
2022/10/17 07:35:20;;;;;;;9.85;8.20;;;;;;;;;;5076323;28;20439;-67
2022/10/17 07:37:46;;;;;;;10.77;9.13;;;;;;;;;;5076841;28;20367;-67
2022/10/17 07:40:13;;;;;;;10.68;8.75;;;;;;;;;;5076507;28;20032;-67
2022/10/17 07:42:39;;;;;;;11.93;8.20;;;;;;;;;;5077049;28;20016;-67
2022/10/17 07:45:06;;;;;;;10.40;8.65;;;;;;;;;;5076083;28;20032;-67
2022/10/17 07:47:34;;;;;;;10.70;8.77;;;;;;;;;;5075948;28;20058;-67
2022/10/17 07:50:01;;;;;;;11.45;8.52;;;;;;;;;;5075792;28;20024;-67
2022/10/17 07:52:26;;;;;;;18.48;8.48;;;;;;;;;;5094445;28;20032;-67
2022/10/17 07:54:52;;;;;;;15.35;9.13;;;;;;;;;;5094093;28;20043;-67
2022/10/17 08:00:52;;;;;;;8.48;6.82;;;;;;;;;;5093864;28;20041;-67
2022/10/17 08:03:18;;;;;;;9.05;7.38;;;;;;;;;;5094585;28;20036;-67
2022/10/17 08:05:44;;;;;;;13.98;8.40;;;;;;;;;;5093956;28;20383;-67
2022/10/17 08:08:10;;;;;;;10.05;7.55;;;;;;;;;;5093537;28;20490;-67
2022/10/17 08:10:35;;;;;;;11.77;7.40;;;;;;;;;;5076100;28;20027;-67
2022/10/17 08:13:01;;;;;;;10.00;7.63;;;;;;;;;;5094419;28;20020;-67
2022/10/17 08:15:26;;;;;;;8.25;7.15;;;;;;;;;;5093853;28;20467;-67
2022/10/17 08:17:54;;;;;;;8.70;7.50;;;;;;;;;;5094368;28;20107;-67
2022/10/17 08:20:19;;;;;;;9.85;6.38;;;;;;;;;;5093770;28;20020;-67
2022/10/17 08:22:50;;;;;;;8.70;6.65;;;;;;;;;;5094334;28;20126;-67
2022/10/17 08:25:15;;;;;;;7.75;6.93;;;;;;;;;;5075472;28;20094;-67
2022/10/17 08:27:41;;;;;;;8.23;6.03;;;;;;;;;;5093986;28;20023;-67
2022/10/17 08:30:06;;;;;;;11.77;7.28;;;;;;;;;;5093638;28;20028;-67
2022/10/17 08:32:32;;;;;;;10.60;7.65;;;;;;;;;;5075478;28;20468;-67
2022/10/17 08:34:57;;;;;;;9.32;8.10;;;;;;;;;;5075512;28;20058;-67
2022/10/17 08:37:22;;;;;;;9.93;8.00;;;;;;;;;;5093574;28;20100;-67
2022/10/17 08:39:48;;;;;;;8.20;7.20;;;;;;;;;;5093859;28;20044;-67
2022/10/17 08:42:42;;;;;;;12.85;8.52;;;;;;;;;;5094114;28;20024;-67
2022/10/17 08:45:20;;;;;;;7.60;6.68;;;;;;;;;;5004585;28;20046;-67
2022/10/17 08:47:56;;;;;;;7.97;6.75;;;;;;;;;;5093806;28;20044;-67
2022/10/17 08:50:33;;;;;;;8.70;6.70;;;;;;;;;;5093759;28;20039;-68
2022/10/17 08:53:13;;;;;;;7.47;6.70;;;;;;;;;;5093785;28;20463;-67
2022/10/17 08:55:41;;;;;;;12.43;6.93;;;;;;;;;;5093996;28;20028;-67
2022/10/17 08:58:13;;;;;;;8.23;7.32;;;;;;;;;;5093702;28;20065;-67
2022/10/17 09:00:39;;;;;;;10.68;7.43;;;;;;;;;;5093690;28;20128;-67
2022/10/17 09:03:17;;;;;;;8.68;6.93;;;;;;;;;;5093366;28;20049;-67
2022/10/17 09:05:49;;;;;;;10.77;6.53;;;;;;;;;;5075179;28;20032;-67
2022/10/17 09:08:17;;;;;;;9.73;6.30;;;;;;;;;;5093602;28;20425;-67
2022/10/17 09:10:43;;;;;;;13.32;6.85;;;;;;;;;;5093805;28;20349;-67
2022/10/17 09:13:08;;;;;;;9.45;6.97;;;;;;;;;;5093292;28;20035;-67
2022/10/17 09:15:52;;;;;;;9.02;7.50;;;;;;;;;;5093277;28;20447;-67
2022/10/17 09:18:22;;;;;;;9.95;8.23;;;;;;;;;;5092086;28;20468;-67
2022/10/17 09:20:48;;;;;;;11.57;8.18;;;;;;;;;;5095572;28;20033;-67
2022/10/17 09:23:53;;;;;;;7.78;5.85;;;;;;;;;;5097268;28;20085;-67
2022/10/17 09:26:18;;;;;;;8.88;6.00;;;;;;;;;;4995583;28;20478;-67
2022/10/17 09:28:45;;;;;;;8.57;6.55;;;;;;;;;;4978998;28;20030;-67
2022/10/17 09:31:17;;;;;;;7.47;5.72;;;;;;;;;;5043423;28;20039;-67
2022/10/17 09:33:47;;;;;;;7.63;6.05;;;;;;;;;;5078912;28;20498;-67
2022/10/17 09:36:15;;;;;;;7.50;5.88;;;;;;;;;;5097072;28;20027;-67
2022/10/17 09:38:46;;;;;;;6.45;5.20;;;;;;;;;;5096976;28;20028;-67
2022/10/17 09:41:19;;;;;;;6.93;6.07;;;;;;;;;;5096662;28;20115;-68
2022/10/17 09:43:46;;;;;;;5.65;4.95;;;;;;;;;;5078893;28;20020;-67
2022/10/17 09:46:11;;;;;;;6.05;5.28;;;;;;;;;;5078793;28;20012;-67
2022/10/17 09:48:38;;;;;;;5.68;5.05;;;;;;;;;;5096393;28;20047;-67
2022/10/17 09:51:05;;;;;;;5.93;5.20;;;;;;;;;;5078275;28;20032;-67
2022/10/17 09:53:36;;;;;;;6.00;5.07;;;;;;;;;;5096707;28;20476;-67
2022/10/17 09:56:03;;;;;;;6.53;5.57;;;;;;;;;;5096537;28;20030;-67
2022/10/17 09:58:41;;;;;;;5.78;5.18;;;;;;;;;;5096630;28;20039;-68
2022/10/17 10:01:15;;;;;;;6.68;5.03;;;;;;;;;;5096609;28;20047;-67
2022/10/17 10:03:41;;;;;;;7.40;4.95;;;;;;;;;;5096549;28;20028;-67
2022/10/17 10:06:14;;;;;;;5.05;4.60;;;;;;;;;;5078155;28;20529;-67
2022/10/17 10:08:50;;;;;;;6.03;5.07;;;;;;;;;;5095278;28;20036;-67
2022/10/17 10:11:16;;;;;;;5.68;5.05;;;;;;;;;;5096080;28;20020;-68
2022/10/17 10:13:42;;;;;;;5.82;4.53;;;;;;;;;;5096609;28;20020;-67
2022/10/17 10:16:16;;;;;;;5.75;5.10;;;;;;;;;;5096064;28;20036;-67
2022/10/17 10:18:42;;;;;;;6.40;4.45;;;;;;;;;;5078187;28;20028;-67
2022/10/17 10:21:18;;;;;;;6.10;5.05;;;;;;;;;;5095953;28;20429;-68
2022/10/17 10:24:04;;;;;;;6.10;4.90;;;;;;;;;;5095900;28;20024;-68
2022/10/17 10:26:37;;;;;;;5.32;4.82;;;;;;;;;;5096050;28;20123;-68
2022/10/17 10:29:17;;;;;;;5.65;5.07;;;;;;;;;;5094836;28;20036;-67
2022/10/17 10:31:42;;;;;;;5.78;4.32;;;;;;;;;;5095852;28;20028;-67
2022/10/17 10:34:27;;;;;;;4.55;4.10;;;;;;;;;;5095695;28;20425;-68
2022/10/17 10:37:13;;;;;;;5.13;4.40;;;;;;;;;;5096155;28;20028;-67
2022/10/17 10:39:47;;;;;;;5.13;4.63;;;;;;;;;;5095851;28;20415;-68
2022/10/17 10:42:21;;;;;;;4.78;4.38;;;;;;;;;;5095797;28;20115;-67
2022/10/17 10:44:47;;;;;;;5.00;4.20;;;;;;;;;;5095729;28;20032;-68
2022/10/17 10:47:15;;;;;;;5.07;4.60;;;;;;;;;;5095246;28;20105;-68
2022/10/17 10:49:41;;;;;;;5.15;4.68;;;;;;;;;;5095291;28;20036;-68
2022/10/17 10:52:09;;;;;;;6.43;4.65;;;;;;;;;;5095614;28;20032;-67
2022/10/17 10:54:37;;;;;;;4.63;4.22;;;;;;;;;;5095287;28;20047;-68
2022/10/17 10:57:05;;;;;;;4.63;4.28;;;;;;;;;;5095494;28;20016;-68
2022/10/17 10:59:41;;;;;;;4.50;4.10;;;;;;;;;;5077010;28;20047;-68
2022/10/17 11:02:19;;;;;;;5.32;4.82;;;;;;;;;;5095101;28;20107;-68
2022/10/17 11:04:44;;;;;;;5.32;4.30;;;;;;;;;;5095393;28;20456;-68
2022/10/17 11:07:13;;;;;;;6.30;4.38;;;;;;;;;;5095318;28;20023;-68
2022/10/17 11:09:57;;;;;;;4.65;4.25;;;;;;;;;;5095453;28;20453;-68
2022/10/17 11:12:35;;;;;;;4.78;4.30;;;;;;;;;;5094020;28;20031;-68
2022/10/17 11:15:00;;;;;;;5.18;4.68;;;;;;;;;;5076746;28;20020;-67
2022/10/17 11:17:38;;;;;;;4.50;4.07;;;;;;;;;;5077023;28;20517;-68
2022/10/17 11:20:06;;;;;;;4.60;4.22;;;;;;;;;;5095321;28;20032;-67
2022/10/17 11:22:35;;;;;;;4.57;4.18;;;;;;;;;;5076628;28;20020;-68
2022/10/17 11:25:09;;;;;;;5.25;4.57;;;;;;;;;;5094943;28;20032;-68
2022/10/17 11:27:34;;;;;;;5.57;4.72;;;;;;;;;;5094683;28;20112;-68
2022/10/17 11:30:00;;;;;;;4.38;3.97;;;;;;;;;;5094528;28;20065;-68
2022/10/17 11:32:29;;;;;;;8.95;4.50;;;;;;;;;;5094864;28;20472;-67
2022/10/17 11:35:06;;;;;;;4.95;4.53;;;;;;;;;;5095078;28;20028;-67
2022/10/17 11:37:35;;;;;;;4.57;4.28;;;;;;;;;;5094746;28;20398;-68
2022/10/17 11:40:03;;;;;;;4.82;4.07;;;;;;;;;;5094727;28;20020;-68
2022/10/17 11:42:34;;;;;;;18.77;4.65;;;;;;;;;;5093735;28;20118;-67
2022/10/17 11:45:08;;;;;;;4.95;4.55;;;;;;;;;;5094104;28;20036;-67
2022/10/17 11:47:33;;;;;;;4.55;4.15;;;;;;;;;;5094194;28;20044;-67
2022/10/17 11:49:59;;;;;;;5.53;3.75;;;;;;;;;;5094137;28;20040;-68
2022/10/17 11:52:40;;;;;;;4.47;3.53;;;;;;;;;;5094468;28;20026;-68
2022/10/17 11:55:11;;;;;;;5.10;4.70;;;;;;;;;;5094548;28;20028;-69
2022/10/17 11:58:00;;;;;;;4.65;4.15;;;;;;;;;;5075990;28;20047;-68
2022/10/17 12:00:44;;;;;;;4.70;4.10;;;;;;;;;;5075646;28;20035;-68
2022/10/17 12:03:16;;;;;;;3.22;2.92;;;;;;;;;;5093496;28;20024;-68
2022/10/17 12:05:41;;;;;;;4.00;3.70;;;;;;;;;;5075852;28;20036;-68
2022/10/17 12:08:15;;;;;;;4.32;3.92;;;;;;;;;;5093804;28;20024;-68
2022/10/17 12:10:50;;;;;;;3.58;2.92;;;;;;;;;;5075631;28;20446;-68
2022/10/17 12:13:28;;;;;;;5.63;3.85;;;;;;;;;;5094319;28;20020;-68
2022/10/17 12:15:57;;;;;;;3.95;3.65;;;;;;;;;;5094155;28;20055;-68
2022/10/17 12:18:24;;;;;;;3.13;2.83;;;;;;;;;;5093855;28;20414;-68
2022/10/17 12:20:56;;;;;;;4.97;4.57;;;;;;;;;;5094094;28;20044;-68
2022/10/17 12:23:31;;;;;;;4.65;4.22;;;;;;;;;;5094295;28;20459;-68
2022/10/17 12:25:57;;;;;;;7.78;4.03;;;;;;;;;;5094080;28;20047;-69
2022/10/17 12:28:29;;;;;;;5.10;4.68;;;;;;;;;;5093987;28;20048;-69
2022/10/17 12:30:54;;;;;;;6.05;4.32;;;;;;;;;;5094205;28;20020;-68
2022/10/17 12:33:21;;;;;;;5.38;4.10;;;;;;;;;;5093683;28;20024;-68
2022/10/17 12:35:48;;;;;;;4.15;3.75;;;;;;;;;;5093675;28;20028;-69
2022/10/17 12:38:13;;;;;;;4.43;4.03;;;;;;;;;;5093525;28;20024;-69
2022/10/17 12:41:00;;;;;;;4.82;4.43;;;;;;;;;;5075502;28;20373;-69
2022/10/17 12:43:28;;;;;;;6.70;4.20;;;;;;;;;;5093637;28;20487;-69
2022/10/17 12:46:00;;;;;;;4.32;4.00;;;;;;;;;;5093557;28;20024;-69
2022/10/17 12:48:32;;;;;;;4.57;4.18;;;;;;;;;;5093311;28;20492;-69
2022/10/17 12:51:11;;;;;;;4.40;4.05;;;;;;;;;;5075371;28;20028;-69
2022/10/17 12:53:41;;;;;;;4.18;3.80;;;;;;;;;;5077863;28;20086;-69
2022/10/17 12:56:07;;;;;;;2.58;2.38;;;;;;;;;;5097546;28;20027;-69
2022/10/17 12:58:34;;;;;;;3.60;3.33;;;;;;;;;;5097522;28;20016;-69
2022/10/17 13:00:59;;;;;;;4.22;3.85;;;;;;;;;;5097737;28;20464;-69
2022/10/17 13:03:27;;;;;;;3.92;3.55;;;;;;;;;;5097185;28;20023;-69
2022/10/17 13:05:54;;;;;;;4.93;4.43;;;;;;;;;;5077729;28;20063;-69
2022/10/17 13:08:30;;;;;;;4.70;4.30;;;;;;;;;;5096343;28;20027;-69
2022/10/17 13:10:56;;;;;;;3.90;3.58;;;;;;;;;;5096181;28;20039;-69
2022/10/17 13:13:21;;;;;;;4.97;4.50;;;;;;;;;;5077790;28;20103;-68
2022/10/17 13:15:48;;;;;;;4.65;4.25;;;;;;;;;;5097427;28;20020;-68
2022/10/17 13:18:24;;;;;;;8.23;5.03;;;;;;;;;;5078286;28;20008;-68
2022/10/17 13:20:54;;;;;;;5.78;4.78;;;;;;;;;;5096509;28;20089;-68
2022/10/17 13:23:23;;;;;;;4.63;4.18;;;;;;;;;;5096243;28;20093;-68
2022/10/17 13:26:01;;;;;;;5.88;3.60;;;;;;;;;;5097787;28;20512;-68
2022/10/17 13:28:27;;;;;;;4.63;4.18;;;;;;;;;;5097005;28;20082;-68
2022/10/17 13:30:54;;;;;;;4.95;4.45;;;;;;;;;;5096886;28;20020;-68
2022/10/17 13:33:45;;;;;;;4.18;3.83;;;;;;;;;;5094796;28;20024;-68
2022/10/17 13:36:15;;;;;;;6.47;4.70;;;;;;;;;;5071754;28;20526;-68
2022/10/17 13:38:40;;;;;;;5.93;4.88;;;;;;;;;;5094752;28;20012;-68
2022/10/17 13:41:10;;;;;;;4.47;4.07;;;;;;;;;;5077363;28;20384;-68
2022/10/17 13:43:35;;;;;;;5.47;4.88;;;;;;;;;;5095605;28;20020;-68
2022/10/17 13:46:04;;;;;;;4.78;4.38;;;;;;;;;;5095880;28;20487;-68
2022/10/17 13:48:30;;;;;;;5.85;4.97;;;;;;;;;;5094160;28;20139;-68
2022/10/17 13:50:57;;;;;;;9.07;4.40;;;;;;;;;;5077144;28;20032;-68
2022/10/17 13:53:30;;;;;;;5.65;4.72;;;;;;;;;;5094764;28;20020;-68
2022/10/17 13:56:16;;;;;;;6.13;4.97;;;;;;;;;;5095502;28;20028;-68
2022/10/17 13:58:49;;;;;;;7.10;4.80;;;;;;;;;;5094679;28;20044;-68
2022/10/17 14:01:15;;;;;;;5.82;4.97;;;;;;;;;;5094864;28;20061;-68
2022/10/17 14:03:41;;;;;;;6.68;4.80;;;;;;;;;;5095142;28;20107;-68
2022/10/17 14:06:15;;;;;;;5.20;4.70;;;;;;;;;;5092827;28;20391;-68
2022/10/17 14:08:55;;;;;;;5.97;4.90;;;;;;;;;;5095014;28;20487;-68
2022/10/17 14:11:34;;;;;;;5.03;4.38;;;;;;;;;;5094958;28;20038;-68
2022/10/17 14:14:00;;;;;;;6.70;5.35;;;;;;;;;;5094808;28;20041;-68
2022/10/17 14:16:32;;;;;;;6.15;4.95;;;;;;;;;;5077019;28;20103;-68
2022/10/17 14:18:57;;;;;;;6.22;5.40;;;;;;;;;;5076671;28;20024;-68
2022/10/17 14:21:24;;;;;;;7.18;5.47;;;;;;;;;;5076580;28;20375;-68
2022/10/17 14:23:50;;;;;;;7.63;4.85;;;;;;;;;;5094856;28;20074;-68
2022/10/17 14:26:20;;;;;;;6.32;5.18;;;;;;;;;;5093301;28;20016;-68
2022/10/17 14:28:50;;;;;;;7.32;5.00;;;;;;;;;;5094828;28;20065;-68
2022/10/17 14:31:27;;;;;;;6.50;5.15;;;;;;;;;;5094266;28;20028;-68
2022/10/17 14:33:53;;;;;;;8.27;5.30;;;;;;;;;;5094382;28;20024;-68
2022/10/17 14:36:19;;;;;;;5.47;5.00;;;;;;;;;;5095750;28;20038;-68
2022/10/17 14:38:46;;;;;;;6.72;5.40;;;;;;;;;;5077567;28;20054;-68
2022/10/17 14:41:14;;;;;;;8.35;5.35;;;;;;;;;;5095869;28;20026;-70
2022/10/17 14:43:39;;;;;;;8.70;6.20;;;;;;;;;;5095812;28;20063;-68
2022/10/17 14:46:05;;;;;;;8.75;6.55;;;;;;;;;;5095647;28;20480;-68
2022/10/17 14:48:31;;;;;;;8.52;6.72;;;;;;;;;;5095383;28;20051;-68
2022/10/17 14:51:06;;;;;;;7.80;7.03;;;;;;;;;;5094648;28;20028;-68
2022/10/17 14:53:31;;;;;;;8.38;6.65;;;;;;;;;;5077076;28;20490;-68
2022/10/17 14:56:01;;;;;;;9.98;6.80;;;;;;;;;;5095528;28;20032;-68
2022/10/17 14:58:28;;;;;;;10.57;7.87;;;;;;;;;;5095526;28;20024;-68